createdAt,value
2023-04-12T00:02:07.559Z,9.80
2023-04-12T00:04:34.475Z,9.70
2023-04-12T00:07:01.297Z,9.60
2023-04-12T00:09:24.712Z,9.60
2023-04-12T00:11:48.212Z,9.60
2023-04-12T00:14:11.685Z,9.50
2023-04-12T00:16:36.205Z,9.50
2023-04-12T00:19:01.677Z,9.50
2023-04-12T00:21:28.691Z,9.50
2023-04-12T00:23:52.055Z,9.50
2023-04-12T00:26:15.346Z,9.50
2023-04-12T00:28:39.273Z,9.40
2023-04-12T00:31:03.734Z,9.40
2023-04-12T00:33:27.093Z,9.40
2023-04-12T00:35:51.835Z,9.40
2023-04-12T00:38:16.183Z,9.50
2023-04-12T00:40:42.644Z,9.40
2023-04-12T00:43:05.960Z,9.30
2023-04-12T00:45:29.709Z,9.30
2023-04-12T00:47:53.386Z,9.30
2023-04-12T00:50:16.661Z,9.20
2023-04-12T00:52:41.558Z,9.20
2023-04-12T00:55:07.231Z,9.20
2023-04-12T00:57:36.528Z,9.20
2023-04-12T00:59:59.930Z,9.10
2023-04-12T01:02:23.400Z,9.00
2023-04-12T01:04:50.636Z,9.00
2023-04-12T01:07:24.956Z,9.00
2023-04-12T01:09:59.929Z,9.00
2023-04-12T01:12:37.921Z,9.00
2023-04-12T01:15:10.459Z,9.00
2023-04-12T01:17:40.435Z,8.80
2023-04-12T01:20:13.725Z,8.80
2023-04-12T01:23:07.367Z,8.80
2023-04-12T01:26:00.447Z,8.80
2023-04-12T01:28:35.185Z,8.80
2023-04-12T01:30:59.235Z,8.70
2023-04-12T01:33:23.326Z,8.60
2023-04-12T01:35:50.080Z,8.50
2023-04-12T01:38:13.831Z,8.50
2023-04-12T01:40:38.001Z,8.50
2023-04-12T01:43:08.753Z,8.50
2023-04-12T01:45:33.459Z,8.50
2023-04-12T01:47:57.238Z,8.50
2023-04-12T01:50:24.661Z,8.50
2023-04-12T01:52:54.471Z,8.40
2023-04-12T01:55:20.285Z,8.50
2023-04-12T01:57:45.497Z,8.30
2023-04-12T02:00:11.742Z,8.30
2023-04-12T02:02:39.960Z,8.20
2023-04-12T02:05:04.411Z,8.20
2023-04-12T02:07:27.737Z,8.30
2023-04-12T02:09:51.196Z,8.20
2023-04-12T02:12:16.655Z,8.20
2023-04-12T02:14:40.101Z,8.30
2023-04-12T02:17:04.670Z,8.20
2023-04-12T02:19:30.022Z,8.20
2023-04-12T02:21:53.889Z,8.20
2023-04-12T02:24:18.489Z,8.30
2023-04-12T02:26:41.992Z,8.20
2023-04-12T02:29:09.096Z,8.20
2023-04-12T02:31:33.112Z,8.20
2023-04-12T02:33:56.561Z,8.20
2023-04-12T02:36:22.053Z,8.20
2023-04-12T02:38:45.906Z,8.20
2023-04-12T02:41:09.288Z,8.10
2023-04-12T02:43:34.092Z,8.20
2023-04-12T02:46:01.160Z,8.10
2023-04-12T02:48:25.548Z,8.10
2023-04-12T02:50:49.194Z,8.10
2023-04-12T02:53:18.994Z,8.10
2023-04-12T02:55:49.944Z,8.10
2023-04-12T02:58:18.942Z,8.10
2023-04-12T03:00:46.676Z,8.00
2023-04-12T03:03:12.229Z,8.00
2023-04-12T03:05:36.166Z,8.00
2023-04-12T03:07:59.462Z,8.00
2023-04-12T03:10:35.262Z,8.00
2023-04-12T03:12:59.763Z,8.00
2023-04-12T03:15:30.014Z,8.00
2023-04-12T03:17:54.171Z,8.00
2023-04-12T03:20:24.579Z,8.10
2023-04-12T03:23:14.059Z,8.10
2023-04-12T03:25:44.305Z,8.20
2023-04-12T03:28:27.846Z,8.20
2023-04-12T03:30:51.836Z,8.20
2023-04-12T03:33:18.054Z,8.20
2023-04-12T03:35:42.702Z,8.20
2023-04-12T03:38:06.266Z,8.30
2023-04-12T03:40:29.628Z,8.20
2023-04-12T03:42:56.247Z,8.30
2023-04-12T03:45:19.721Z,8.20
2023-04-12T03:47:47.852Z,8.20
2023-04-12T03:50:13.089Z,8.30
2023-04-12T03:52:42.649Z,8.30
2023-04-12T03:55:08.332Z,8.30
2023-04-12T03:57:32.804Z,8.30
2023-04-12T03:59:58.346Z,8.20
2023-04-12T04:02:27.888Z,8.20
2023-04-12T04:04:53.945Z,8.30
2023-04-12T04:07:23.620Z,8.20
2023-04-12T04:09:49.939Z,8.20
2023-04-12T04:12:13.364Z,8.20
2023-04-12T04:14:41.263Z,8.20
2023-04-12T04:17:08.749Z,8.20
2023-04-12T04:19:31.992Z,8.20
2023-04-12T04:21:56.254Z,8.20
2023-04-12T04:24:22.298Z,8.20
2023-04-12T04:26:48.007Z,8.20
2023-04-12T04:29:19.572Z,8.20
2023-04-12T04:31:46.041Z,8.10
2023-04-12T04:34:12.818Z,8.20
2023-04-12T04:36:42.630Z,8.10
2023-04-12T04:39:06.729Z,8.10
2023-04-12T04:41:39.451Z,8.10
2023-04-12T04:44:09.681Z,8.10
2023-04-12T04:46:36.835Z,8.00
2023-04-12T04:49:00.905Z,8.00
2023-04-12T04:51:26.161Z,8.00
2023-04-12T04:53:51.579Z,8.00
2023-04-12T04:56:14.824Z,8.00
2023-04-12T04:58:40.208Z,8.00
2023-04-12T05:01:05.261Z,7.90
2023-04-12T05:03:30.522Z,7.90
2023-04-12T05:05:55.973Z,7.90
2023-04-12T05:08:21.040Z,7.90
2023-04-12T05:10:45.642Z,7.90
2023-04-12T05:13:09.890Z,7.80
2023-04-12T05:15:34.354Z,7.80
2023-04-12T05:17:57.674Z,7.80
2023-04-12T05:20:21.436Z,7.80
2023-04-12T05:22:44.821Z,7.80
2023-04-12T05:25:11.383Z,7.80
2023-04-12T05:27:41.659Z,7.80
2023-04-12T05:30:09.317Z,7.80
2023-04-12T05:32:32.760Z,7.80
2023-04-12T05:34:57.000Z,7.80
2023-04-12T05:37:20.734Z,7.80
2023-04-12T05:39:44.042Z,7.80
2023-04-12T05:42:10.188Z,7.80
2023-04-12T05:44:35.752Z,7.80
2023-04-12T05:46:59.668Z,7.90
2023-04-12T05:49:23.195Z,7.80
2023-04-12T05:51:46.750Z,7.80
2023-04-12T05:54:20.962Z,7.90
2023-04-12T05:56:45.811Z,7.90
2023-04-12T05:59:11.537Z,7.90
2023-04-12T06:01:35.608Z,7.90
2023-04-12T06:03:59.124Z,8.00
2023-04-12T06:06:22.608Z,8.00
2023-04-12T06:08:46.188Z,8.00
2023-04-12T06:11:11.468Z,7.90
2023-04-12T06:13:34.758Z,8.00
2023-04-12T06:16:00.417Z,8.00
2023-04-12T06:18:23.927Z,8.00
2023-04-12T06:20:47.366Z,8.00
2023-04-12T06:23:10.715Z,8.00
2023-04-12T06:25:34.881Z,8.00
2023-04-12T06:27:58.636Z,8.00
2023-04-12T06:30:22.871Z,8.00
2023-04-12T06:32:50.691Z,8.00
2023-04-12T06:35:14.030Z,8.10
2023-04-12T06:37:37.326Z,8.00
2023-04-12T06:40:00.667Z,8.00
2023-04-12T06:42:23.932Z,8.10
2023-04-12T06:44:47.185Z,8.00
2023-04-12T06:47:10.528Z,8.10
2023-04-12T06:49:35.639Z,8.10
2023-04-12T06:51:59.383Z,8.10
2023-04-12T06:54:22.699Z,8.20
2023-04-12T06:56:46.025Z,8.20
2023-04-12T06:59:09.829Z,8.20
2023-04-12T07:01:33.138Z,8.20
2023-04-12T07:03:56.472Z,8.30
2023-04-12T07:06:25.609Z,8.20
2023-04-12T07:08:49.923Z,8.30
2023-04-12T07:11:20.945Z,8.30
2023-04-12T07:13:45.238Z,8.30
2023-04-12T07:16:09.222Z,8.40
2023-04-12T07:18:32.494Z,8.50
2023-04-12T07:20:57.497Z,8.50
2023-04-12T07:23:22.359Z,8.50
2023-04-12T07:25:46.002Z,8.50
2023-04-12T07:28:09.278Z,8.50
2023-04-12T07:30:32.774Z,8.50
2023-04-12T07:33:05.249Z,8.60
2023-04-12T07:35:36.139Z,8.50
2023-04-12T07:37:59.617Z,8.60
2023-04-12T07:40:24.630Z,8.50
2023-04-12T07:42:47.948Z,8.60
2023-04-12T07:45:11.855Z,8.50
2023-04-12T07:47:35.233Z,8.60
2023-04-12T07:49:58.981Z,8.60
2023-04-12T07:52:22.637Z,8.60
2023-04-12T07:54:45.934Z,8.70
2023-04-12T07:57:10.815Z,8.70
2023-04-12T07:59:34.133Z,8.80
2023-04-12T08:01:57.582Z,8.70
2023-04-12T08:04:21.258Z,8.80
2023-04-12T08:06:44.599Z,8.80
2023-04-12T08:09:07.892Z,8.80
2023-04-12T08:11:31.419Z,8.90
2023-04-12T08:13:56.332Z,8.90
2023-04-12T08:16:19.726Z,9.00
2023-04-12T08:18:43.067Z,8.90
2023-04-12T08:21:07.061Z,9.00
2023-04-12T08:23:31.091Z,9.00
2023-04-12T08:25:59.453Z,9.00
2023-04-12T08:28:22.731Z,9.00
2023-04-12T08:30:47.373Z,9.00
2023-04-12T08:33:10.662Z,9.00
2023-04-12T08:35:34.003Z,9.00
2023-04-12T08:37:57.349Z,9.10
2023-04-12T08:40:21.783Z,9.10
2023-04-12T08:42:45.669Z,9.20
2023-04-12T08:45:11.676Z,9.10
2023-04-12T08:47:39.397Z,9.10
2023-04-12T08:50:03.796Z,9.10
2023-04-12T08:52:27.087Z,9.10
2023-04-12T08:54:50.526Z,9.00
2023-04-12T08:57:15.029Z,9.10
2023-04-12T08:59:40.621Z,9.10
2023-04-12T09:02:04.211Z,9.10
2023-04-12T09:04:29.674Z,9.20
2023-04-12T09:06:53.080Z,9.40
2023-04-12T09:09:16.651Z,9.30
2023-04-12T09:11:40.449Z,9.30
2023-04-12T09:14:04.114Z,9.30
2023-04-12T09:16:38.640Z,9.40
2023-04-12T09:19:03.117Z,9.40
2023-04-12T09:21:27.867Z,9.40
2023-04-12T09:24:05.892Z,9.40
2023-04-12T09:26:30.282Z,9.40
2023-04-12T09:28:53.673Z,9.60
2023-04-12T09:31:17.968Z,9.60
2023-04-12T09:33:41.543Z,9.60
2023-04-12T09:36:09.355Z,9.50
2023-04-12T09:38:36.909Z,9.70
2023-04-12T09:41:20.482Z,9.70
2023-04-12T09:43:46.063Z,9.80
2023-04-12T09:46:13.251Z,9.80
2023-04-12T09:48:37.098Z,10.00
2023-04-12T09:51:01.348Z,10.00
2023-04-12T09:53:25.521Z,10.10
2023-04-12T09:55:51.772Z,10.20
2023-04-12T09:58:20.500Z,10.40
2023-04-12T10:00:44.919Z,10.40
2023-04-12T10:03:08.792Z,10.90
2023-04-12T10:05:32.180Z,11.00
2023-04-12T10:07:58.505Z,11.00
2023-04-12T10:10:25.187Z,10.90
2023-04-12T10:12:50.657Z,11.30
2023-04-12T10:15:17.697Z,11.00
2023-04-12T10:17:45.360Z,10.80
2023-04-12T10:20:10.551Z,11.00
2023-04-12T10:22:33.943Z,11.00
2023-04-12T10:24:58.667Z,11.00
2023-04-12T10:27:28.156Z,10.70
2023-04-12T10:29:52.880Z,10.10
2023-04-12T10:32:24.115Z,9.90
2023-04-12T10:34:53.651Z,9.50
2023-04-12T10:37:17.193Z,9.60
2023-04-12T10:39:42.697Z,9.50
2023-04-12T10:42:20.668Z,9.50
2023-04-12T10:44:44.188Z,9.50
2023-04-12T10:47:09.797Z,9.40
2023-04-12T10:49:34.806Z,9.40
2023-04-12T10:52:15.933Z,9.50
2023-04-12T10:54:39.356Z,9.50
2023-04-12T10:57:06.378Z,9.50
2023-04-12T10:59:56.967Z,9.60
2023-04-12T11:02:22.149Z,10.00
2023-04-12T11:05:10.203Z,9.90
2023-04-12T11:07:55.259Z,10.00
2023-04-12T11:10:47.867Z,10.00
2023-04-12T11:13:17.729Z,10.10
2023-04-12T11:15:42.091Z,10.20
2023-04-12T11:18:10.134Z,10.50
2023-04-12T11:20:34.359Z,10.30
2023-04-12T11:22:59.248Z,10.50
2023-04-12T11:25:22.643Z,10.80
2023-04-12T11:27:52.052Z,10.70
2023-04-12T11:30:15.462Z,10.90
2023-04-12T11:32:41.494Z,11.00
2023-04-12T11:35:07.392Z,10.90
2023-04-12T11:37:32.603Z,11.20
2023-04-12T11:39:59.378Z,11.20
2023-04-12T11:42:26.247Z,11.10
2023-04-12T11:44:56.437Z,11.10
2023-04-12T11:47:24.435Z,11.30
2023-04-12T11:49:50.780Z,11.50
2023-04-12T11:52:16.826Z,11.40
2023-04-12T11:54:43.437Z,11.30
2023-04-12T11:57:06.803Z,11.60
2023-04-12T11:59:34.368Z,11.60
2023-04-12T12:01:57.717Z,11.40
2023-04-12T12:04:21.325Z,11.30
2023-04-12T12:06:45.760Z,11.40
2023-04-12T12:09:10.626Z,11.60
2023-04-12T12:11:33.954Z,12.00
2023-04-12T12:13:58.120Z,12.00
2023-04-12T12:16:27.922Z,12.10
2023-04-12T12:18:52.925Z,12.20
2023-04-12T12:21:16.664Z,12.00
2023-04-12T12:23:40.316Z,12.10
2023-04-12T12:26:18.377Z,12.20
2023-04-12T12:28:42.504Z,12.00
2023-04-12T12:31:08.322Z,12.10
2023-04-12T12:33:46.663Z,12.00
2023-04-12T12:36:11.219Z,12.00
2023-04-12T12:38:37.788Z,11.80
2023-04-12T12:41:17.438Z,12.00
2023-04-12T12:43:46.896Z,11.90
2023-04-12T12:46:10.197Z,12.00
2023-04-12T12:48:33.974Z,12.30
2023-04-12T12:50:57.284Z,12.20
2023-04-12T12:53:22.543Z,12.10
2023-04-12T12:55:47.301Z,12.30
2023-04-12T12:58:11.981Z,12.40
2023-04-12T13:00:36.382Z,12.90
2023-04-12T13:03:00.077Z,12.80
2023-04-12T13:05:24.146Z,12.90
2023-04-12T13:07:47.837Z,12.70
2023-04-12T13:10:11.966Z,12.50
2023-04-12T13:12:35.591Z,12.50
2023-04-12T13:15:13.464Z,12.50
2023-04-12T13:17:44.169Z,12.50
2023-04-12T13:20:09.432Z,12.50
2023-04-12T13:22:32.735Z,12.40
2023-04-12T13:24:56.454Z,12.10
2023-04-12T13:27:19.797Z,11.70
2023-04-12T13:29:43.212Z,11.40
2023-04-12T13:32:08.330Z,11.10
2023-04-12T13:34:33.234Z,10.80
2023-04-12T13:36:56.590Z,10.50
2023-04-12T13:39:20.062Z,10.40
2023-04-12T13:41:43.435Z,10.50
2023-04-12T13:44:06.702Z,10.70
2023-04-12T13:46:30.655Z,10.60
2023-04-12T13:48:55.893Z,10.90
2023-04-12T13:51:19.528Z,11.00
2023-04-12T13:53:42.938Z,10.80
2023-04-12T13:56:07.136Z,10.50
2023-04-12T13:58:30.817Z,10.10
2023-04-12T14:00:56.185Z,10.20
2023-04-12T14:03:19.553Z,10.00
2023-04-12T14:05:44.160Z,9.80
2023-04-12T14:08:07.715Z,9.50
2023-04-12T14:10:31.393Z,9.30
2023-04-12T14:12:54.686Z,9.20
2023-04-12T14:15:17.948Z,9.40
2023-04-12T14:17:41.319Z,9.40
2023-04-12T14:20:06.823Z,9.80
2023-04-12T14:22:31.800Z,10.20
2023-04-12T14:24:55.231Z,10.40
2023-04-12T14:27:18.575Z,10.50
2023-04-12T14:29:42.125Z,10.40
2023-04-12T14:32:05.393Z,10.50
2023-04-12T14:34:28.718Z,11.30
2023-04-12T14:36:52.033Z,11.10
2023-04-12T14:39:17.020Z,10.30
2023-04-12T14:41:41.405Z,10.20
2023-04-12T14:44:04.795Z,10.20
2023-04-12T14:46:28.319Z,10.30
2023-04-12T14:48:51.693Z,10.00
2023-04-12T14:51:14.962Z,9.60
2023-04-12T14:53:38.299Z,9.30
2023-04-12T14:56:03.149Z,9.30
2023-04-12T14:58:29.354Z,9.00
2023-04-12T15:00:53.003Z,8.90
2023-04-12T15:03:17.232Z,8.70
2023-04-12T15:05:40.702Z,8.30
2023-04-12T15:08:04.332Z,8.00
2023-04-12T15:10:28.016Z,8.10
2023-04-12T15:12:52.756Z,8.30
2023-04-12T15:15:16.673Z,8.50
2023-04-12T15:17:40.797Z,8.80
2023-04-12T15:20:09.381Z,9.40
2023-04-12T15:22:36.330Z,9.90
2023-04-12T15:24:59.682Z,10.30
2023-04-12T15:27:22.987Z,10.50
2023-04-12T15:29:47.713Z,10.20
2023-04-12T15:32:11.972Z,10.80
2023-04-12T15:34:35.339Z,11.10
2023-04-12T15:36:58.976Z,11.90
2023-04-12T15:39:22.706Z,11.10
2023-04-12T15:41:46.248Z,11.30
2023-04-12T15:44:11.870Z,11.80
2023-04-12T15:46:36.849Z,12.00
2023-04-12T15:49:00.212Z,12.20
2023-04-12T15:51:23.909Z,11.80
2023-04-12T15:53:47.370Z,10.60
2023-04-12T15:56:13.650Z,10.20
2023-04-12T15:58:37.060Z,10.30
2023-04-12T16:01:00.248Z,9.80
2023-04-12T16:03:26.238Z,9.70
2023-04-12T16:05:53.157Z,10.00
2023-04-12T16:08:16.624Z,10.00
2023-04-12T16:10:41.332Z,9.50
2023-04-12T16:13:05.042Z,9.40
2023-04-12T16:15:28.335Z,9.10
2023-04-12T16:17:54.522Z,9.20
2023-04-12T16:20:21.638Z,9.20
2023-04-12T16:22:47.949Z,9.10
2023-04-12T16:25:11.914Z,8.70
2023-04-12T16:27:36.857Z,8.50
2023-04-12T16:30:02.060Z,8.70
2023-04-12T16:32:25.370Z,8.60
2023-04-12T16:34:48.825Z,8.60
2023-04-12T16:37:13.503Z,8.50
2023-04-12T16:39:36.914Z,8.00
2023-04-12T16:42:02.823Z,8.10
2023-04-12T16:44:26.456Z,8.30
2023-04-12T16:46:49.859Z,8.50
2023-04-12T16:49:13.277Z,8.20
2023-04-12T16:51:37.506Z,8.20
2023-04-12T16:54:02.327Z,8.40
2023-04-12T16:56:25.668Z,8.30
2023-04-12T16:58:48.940Z,8.30
2023-04-12T17:01:16.266Z,8.30
2023-04-12T17:03:40.321Z,8.40
2023-04-12T17:06:04.427Z,8.40
2023-04-12T17:08:27.713Z,8.40
2023-04-12T17:10:54.363Z,8.40
2023-04-12T17:13:20.081Z,8.20
2023-04-12T17:15:43.939Z,8.20
2023-04-12T17:18:09.673Z,8.40
2023-04-12T17:20:33.540Z,8.50
2023-04-12T17:22:57.519Z,8.40
2023-04-12T17:25:22.381Z,8.50
2023-04-12T17:27:50.126Z,8.30
2023-04-12T17:30:16.083Z,8.20
2023-04-12T17:32:40.803Z,8.20
2023-04-12T17:35:05.056Z,8.20
2023-04-12T17:37:28.726Z,8.30
2023-04-12T17:39:52.834Z,8.30
2023-04-12T17:42:16.365Z,8.30
2023-04-12T17:44:41.088Z,8.30
2023-04-12T17:47:04.440Z,8.20
2023-04-12T17:49:27.857Z,8.10
2023-04-12T17:51:51.298Z,8.10
2023-04-12T17:54:14.747Z,8.00
2023-04-12T17:56:38.026Z,7.90
2023-04-12T17:59:02.094Z,7.90
2023-04-12T18:01:27.380Z,8.00
2023-04-12T18:03:51.429Z,7.90
2023-04-12T18:06:15.269Z,7.90
2023-04-12T18:08:38.605Z,8.00
2023-04-12T18:15:42.060Z,7.90
2023-04-12T18:18:07.991Z,7.90
2023-04-12T18:20:31.485Z,7.70
2023-04-12T18:22:54.838Z,7.60
2023-04-12T18:25:18.328Z,7.60
2023-04-12T18:27:42.017Z,7.60
2023-04-12T18:30:07.491Z,7.60
2023-04-12T18:32:31.330Z,7.70
2023-04-12T18:34:56.316Z,7.70
2023-04-12T18:37:19.809Z,7.60
2023-04-12T18:39:43.258Z,7.60
2023-04-12T18:42:06.746Z,7.60
2023-04-12T18:44:31.374Z,7.60
2023-04-12T18:46:54.806Z,7.70
2023-04-12T18:49:18.559Z,7.80
2023-04-12T18:51:43.862Z,7.70
2023-04-12T18:54:11.118Z,7.60
2023-04-12T18:56:34.650Z,7.70
2023-04-12T18:58:58.030Z,7.60
2023-04-12T19:01:22.488Z,7.50
2023-04-12T19:03:46.174Z,7.50
2023-04-12T19:06:09.896Z,7.60
2023-04-12T19:08:34.946Z,7.50
2023-04-12T19:10:59.073Z,7.40
2023-04-12T19:13:23.231Z,7.50
2023-04-12T19:15:46.925Z,7.50
2023-04-12T19:18:10.322Z,7.50
2023-04-12T19:20:34.368Z,7.40
2023-04-12T19:22:58.406Z,7.40
2023-04-12T19:25:25.575Z,7.30
2023-04-12T19:27:49.007Z,7.10
2023-04-12T19:30:13.145Z,7.10
2023-04-12T19:32:36.502Z,7.10
2023-04-12T19:34:59.897Z,7.20
2023-04-12T19:37:23.711Z,7.10
2023-04-12T19:39:47.069Z,7.20
2023-04-12T19:42:11.824Z,7.10
2023-04-12T19:44:35.215Z,7.30
2023-04-12T19:46:59.527Z,7.30
2023-04-12T19:49:23.862Z,7.30
2023-04-12T19:51:48.249Z,7.30
2023-04-12T19:54:12.136Z,7.30
2023-04-12T19:56:35.715Z,7.30
2023-04-12T19:59:01.065Z,7.30
2023-04-12T20:01:26.721Z,7.20
2023-04-12T20:03:50.370Z,7.50
2023-04-12T20:06:14.443Z,7.40
2023-04-12T20:08:38.807Z,7.50
2023-04-12T20:11:03.502Z,7.30
2023-04-12T20:13:28.593Z,7.20
2023-04-12T20:15:54.065Z,7.10
2023-04-12T20:18:18.024Z,7.00
2023-04-12T20:20:44.108Z,6.80
2023-04-12T20:23:07.574Z,6.70
2023-04-12T20:25:33.962Z,6.50
2023-04-12T20:27:58.717Z,6.50
2023-04-12T20:30:22.820Z,6.40
2023-04-12T20:32:48.759Z,6.20
2023-04-12T20:35:13.104Z,6.20
2023-04-12T20:37:36.783Z,6.20
2023-04-12T20:40:00.871Z,6.20
2023-04-12T20:42:25.165Z,6.20
2023-04-12T20:44:49.139Z,6.10
2023-04-12T20:47:12.691Z,6.20
2023-04-12T20:49:38.003Z,6.00
2023-04-12T20:52:02.306Z,6.00
2023-04-12T20:54:29.771Z,6.00
2023-04-12T20:56:54.308Z,6.00
2023-04-12T20:59:22.011Z,6.00
2023-04-12T21:01:46.951Z,6.00
2023-04-12T21:04:10.636Z,5.90
2023-04-12T21:06:37.559Z,5.80
2023-04-12T21:09:01.725Z,5.70
2023-04-12T21:11:27.264Z,5.70
2023-04-12T21:13:50.928Z,5.60
2023-04-12T21:16:16.024Z,5.50
2023-04-12T21:18:41.460Z,5.50
2023-04-12T21:21:06.116Z,5.50
2023-04-12T21:23:31.183Z,5.50
2023-04-12T21:25:54.936Z,5.50
2023-04-12T21:28:20.658Z,5.50
2023-04-12T21:30:46.324Z,5.50
2023-04-12T21:33:10.127Z,5.50
2023-04-12T21:35:34.010Z,5.50
2023-04-12T21:37:57.785Z,5.50
2023-04-12T21:40:23.310Z,5.30
2023-04-12T21:42:46.972Z,5.40
2023-04-12T21:45:13.129Z,5.50
2023-04-12T21:47:37.750Z,5.50
2023-04-12T21:50:01.841Z,5.50
2023-04-12T21:52:26.067Z,5.50
2023-04-12T21:54:49.941Z,5.70
2023-04-12T21:57:17.039Z,5.70
2023-04-12T21:59:41.760Z,5.70
2023-04-12T22:02:05.234Z,5.70
2023-04-12T22:04:28.494Z,5.70
2023-04-12T22:06:52.527Z,5.70
2023-04-12T22:09:16.156Z,5.70
2023-04-12T22:11:39.454Z,5.70
2023-04-12T22:14:04.057Z,5.70
2023-04-12T22:16:27.900Z,5.60
2023-04-12T22:18:51.145Z,5.70
2023-04-12T22:21:15.354Z,5.60
2023-04-12T22:23:40.621Z,5.60
2023-04-12T22:26:06.968Z,5.60
2023-04-12T22:28:30.186Z,5.50
2023-04-12T22:30:57.105Z,5.50
2023-04-12T22:33:20.488Z,5.50
2023-04-12T22:35:44.081Z,5.50
2023-04-12T22:38:07.675Z,5.50
2023-04-12T22:40:30.968Z,5.50
2023-04-12T22:42:56.103Z,5.50
2023-04-12T22:45:19.470Z,5.60
2023-04-12T22:47:44.390Z,5.70
2023-04-12T22:50:08.734Z,5.60
2023-04-12T22:52:31.994Z,5.70
2023-04-12T22:54:55.491Z,6.00
2023-04-12T22:57:18.775Z,6.00
2023-04-12T22:59:42.115Z,5.90
2023-04-12T23:02:06.479Z,6.00
2023-04-12T23:04:31.445Z,6.20
2023-04-12T23:06:56.113Z,6.20
2023-04-12T23:09:19.666Z,6.10
2023-04-12T23:11:43.697Z,6.30
2023-04-12T23:14:08.257Z,6.30
2023-04-12T23:16:33.662Z,6.40
2023-04-12T23:18:57.526Z,6.40
2023-04-12T23:21:22.167Z,6.40
2023-04-12T23:23:45.457Z,6.50
2023-04-12T23:26:10.192Z,6.50
2023-04-12T23:28:34.300Z,6.60
2023-04-12T23:30:59.015Z,6.50
2023-04-12T23:33:25.087Z,6.50
2023-04-12T23:35:52.450Z,6.50
2023-04-12T23:38:24.240Z,6.50
2023-04-12T23:40:50.787Z,6.60
2023-04-12T23:43:14.060Z,6.60
2023-04-12T23:45:38.035Z,6.70
2023-04-12T23:48:02.047Z,6.70
2023-04-12T23:50:25.848Z,6.80
2023-04-12T23:53:15.238Z,6.80
2023-04-12T23:55:39.970Z,6.70
2023-04-12T23:58:03.191Z,6.80
